Flight Track Log - Related Links

Times and Time Zones

All times are in EST time to prevent confusion due to time zone crossing. See the FIN666 flight status page for this flight to view local times or setup timezone preferences in your user account.

Time Position Orientation Groundspeed Altitude Reporting Facility
EST Latitude Longitude Course Direction KTS MPH feet Rate Location/Type
Mon 07:29:00 AM 55.9164 13.2747 49° Northeast  Level Estimated
Mon 07:30:00 AM 55.9905 13.4309 50° Northeast  Level Estimated
Mon 07:31:00 AM 56.0644 13.5877 50° Northeast  Level Estimated
Mon 07:32:00 AM 56.1414 13.7521 50° Northeast  Level Estimated
Mon 07:33:00 AM 56.2182 13.9172 50° Northeast  Level Estimated
Mon 07:34:00 AM 56.2948 14.0830 50° Northeast  Level Estimated
Mon 07:35:00 AM 56.3712 14.2494 50° Northeast  Level Estimated
Mon 07:36:00 AM 56.4473 14.4165 50° Northeast  Level Estimated
Mon 07:37:00 AM 56.5232 14.5843 51° Northeast  Level Estimated
Mon 07:38:00 AM 56.5989 14.7527 51° Northeast  Level Estimated
Mon 07:39:00 AM 56.6743 14.9218 51° Northeast  Level Estimated
Mon 07:40:00 AM 56.7496 15.0916 51° Northeast  Level Estimated
Mon 07:41:00 AM 56.8246 15.2621 51° Northeast  Level Estimated
Mon 07:42:00 AM 56.8993 15.4332 51° Northeast  Level Estimated
Mon 07:43:00 AM 56.9738 15.6051 51° Northeast  Level Estimated
Mon 07:44:00 AM 57.0481 15.7776 52° Northeast  Level Estimated
Mon 07:45:00 AM 57.1222 15.9508 52° Northeast  Level Estimated
Mon 07:46:00 AM 57.1960 16.1247 52° Northeast  Level Estimated
Mon 07:47:00 AM 57.2696 16.2993 52° Northeast  Level Estimated
Mon 07:48:00 AM 57.3429 16.4746 52° Northeast  Level Estimated
Mon 07:49:00 AM 57.4160 16.6506 52° Northeast  Level Estimated
Mon 07:50:00 AM 57.4888 16.8274 52° Northeast  Level Estimated
Mon 07:51:00 AM 57.5614 17.0048 53° Northeast  Level Estimated
Mon 07:52:00 AM 57.6337 17.1829 53° Northeast  Level Estimated
Mon 07:53:00 AM 57.7058 17.3617 53° Northeast  Level Estimated
Mon 07:54:00 AM 57.7776 17.5413 53° Northeast  Level Estimated
Mon 07:55:00 AM 57.8492 17.7215 53° Northeast  Level Estimated
Mon 07:56:00 AM 57.9206 17.9025 53° Northeast  Level Estimated
Mon 07:57:00 AM 57.9916 18.0842 54° Northeast  Level Estimated
Mon 07:58:00 AM 58.0624 18.2666 54° Northeast  Level Estimated
Mon 07:59:00 AM 58.1329 18.4497 54° Northeast  Level Estimated
Mon 08:00:00 AM 58.2032 18.6336 54° Northeast  Level Estimated
Mon 08:01:00 AM 58.2732 18.8181 54° Northeast  Level Estimated
Mon 08:02:00 AM 58.3430 19.0035 54° Northeast  Level Estimated
Mon 08:03:00 AM 58.4125 19.1895 54° Northeast  Level Estimated
Mon 08:04:00 AM 58.4817 19.3763 55° Northeast  Level Estimated
Mon 08:05:00 AM 58.5506 19.5638 55° Northeast  Level Estimated
Mon 08:06:00 AM 58.6193 19.7521 55° Northeast  Level Estimated
Mon 08:07:00 AM 58.6876 19.9411 55° Northeast  Level Estimated
Mon 08:08:00 AM 58.7558 20.1308 55° Northeast  Level Estimated
Mon 08:09:00 AM 58.8236 20.3213 55° Northeast  Level Estimated
Mon 08:10:00 AM 58.8911 20.5125 56° Northeast  Level Estimated
Mon 08:11:00 AM 58.9584 20.7045 56° Northeast  Level Estimated
Mon 08:12:00 AM 59.0254 20.8972 56° Northeast  Level Estimated
Mon 08:13:00 AM 59.0921 21.0907 56° Northeast  Level Estimated
Mon 08:14:00 AM 59.1585 21.2849 56° Northeast  Level Estimated
Mon 08:15:00 AM 59.2246 21.4799 56° Northeast  Level Estimated
Mon 08:16:00 AM 59.2904 21.6756 57° Northeast  Level Estimated
Mon 08:17:00 AM 59.3559 21.8721 57° Northeast  Level Estimated
Mon 08:18:00 AM 59.4211 22.0694 57° Northeast  Level Estimated
Mon 08:19:00 AM 59.4861 22.2674 57° Northeast  Level Estimated
Mon 08:20:00 AM 59.5507 22.4661 57° Northeast  Level Estimated
Mon 08:21:00 AM 59.6150 22.6657 57° Northeast  Level Estimated
Mon 08:22:00 AM 59.6790 22.8660 58° Northeast  Level Estimated
Mon 08:23:00 AM 59.7427 23.0670 58° Northeast  Level Estimated
Mon 08:24:00 AM 59.8061 23.2689 58° Northeast  Level Estimated
Mon 08:25:00 AM 59.8692 23.4715 58° Northeast  Level Estimated
Mon 08:26:00 AM 59.9320 23.6748 58° Northeast  Level Estimated
Mon 08:27:00 AM 59.9945 23.8789 58° Northeast  Level Estimated
Mon 08:28:00 AM 60.0566 24.0838 59° Northeast  Level Estimated
Mon 08:29:00 AM 60.1185 24.2895 59° Northeast  Level Estimated
Mon 08:30:00 AM 60.1800 24.4960 59° Northeast  Level Estimated
Mon 08:31:00 AM 60.2412 24.7032 59° Northeast  Level Estimated
Mon 08:32:00 AM 60.3020 24.9112 59° Northeast  Level Estimated
Mon 08:33:00 AM 60.3172 24.9633 60° Northeast  Level Estimated
Mon 08:34:00 AM 60.3172 24.9633 37° Northeast  Level Estimated
Mon 08:35:00 AM 60.3172 24.9633 37° Northeast  Level Estimated
Mon 08:36:00 AM 60.3172 24.9633 37° Northeast  Level Estimated
Mon 08:37:00 AM 60.3172 24.9633 37° Northeast  Level Estimated
Mon 08:38:00 AM 60.3172 24.9633 37° Northeast  Level Estimated
Mon 08:39:00 AM 60.3172 24.9633 37° Northeast  Level Estimated
Mon 08:40:00 AM 60.3172 24.9633 37° Northeast  Level Estimated
Mon 08:41:00 AM 60.3172 24.9633 37° Northeast  Level Estimated
Mon 08:42:00 AM 60.3172 24.9633 37° Northeast  Level Estimated
Mon 08:43:00 AM 60.3172 24.9633 37° Northeast  Level Estimated
Mon 08:44:00 AM 60.3172 24.9633 37° Northeast  Level Estimated

Login

Don't have an account? Register now (free) for customized features, flight alerts, and more!